createdAt,value
2022-09-23T00:01:11.093Z,9.42
2022-09-23T00:03:41.943Z,9.86
2022-09-23T00:06:14.755Z,9.90
2022-09-23T00:08:42.331Z,9.64
2022-09-23T00:11:21.082Z,9.54
2022-09-23T00:13:50.409Z,9.88
2022-09-23T00:16:21.513Z,9.73
2022-09-23T00:18:50.631Z,9.61
2022-09-23T00:21:19.591Z,9.71
2022-09-23T00:23:47.479Z,9.15
2022-09-23T00:26:16.995Z,9.34
2022-09-23T00:28:44.752Z,9.27
2022-09-23T00:31:15.361Z,9.10
2022-09-23T00:33:43.155Z,9.45
2022-09-23T00:36:15.177Z,9.42
2022-09-23T00:38:44.298Z,9.26
2022-09-23T00:41:17.663Z,9.03
2022-09-23T00:43:51.214Z,9.10
2022-09-23T00:46:24.803Z,9.46
2022-09-23T00:49:00.558Z,9.12
2022-09-23T00:51:34.542Z,8.61
2022-09-23T00:54:02.743Z,8.85
2022-09-23T00:56:30.744Z,9.13
2022-09-23T00:58:58.205Z,9.11
2022-09-23T01:01:25.923Z,9.26
2022-09-23T01:03:54.462Z,9.32
2022-09-23T01:06:21.811Z,9.08
2022-09-23T01:08:49.539Z,9.00
2022-09-23T01:11:54.486Z,9.12
2022-09-23T01:14:59.175Z,9.19
2022-09-23T01:17:39.494Z,8.59
2022-09-23T01:20:31.259Z,8.58
2022-09-23T01:23:52.873Z,8.91
2022-09-23T01:26:39.087Z,9.07
2022-09-23T01:29:25.636Z,9.18
2022-09-23T01:32:04.063Z,8.89
2022-09-23T01:34:35.088Z,8.68
2022-09-23T01:37:26.566Z,8.52
2022-09-23T01:40:04.213Z,8.97
2022-09-23T01:42:39.501Z,8.84
2022-09-23T01:45:32.399Z,8.47
2022-09-23T01:48:36.955Z,8.67
2022-09-23T01:51:12.775Z,8.72
2022-09-23T01:53:50.605Z,8.99
2022-09-23T01:56:25.190Z,8.54
2022-09-23T01:58:55.985Z,8.93
2022-09-23T02:01:37.524Z,8.84
2022-09-23T02:04:25.722Z,8.99
2022-09-23T02:06:56.365Z,8.70
2022-09-23T02:09:26.052Z,8.51
2022-09-23T02:11:58.854Z,8.76
2022-09-23T02:14:36.805Z,8.04
2022-09-23T02:17:09.865Z,7.99
2022-09-23T02:19:44.552Z,8.09
2022-09-23T02:22:17.052Z,7.77
2022-09-23T02:24:45.144Z,7.93
2022-09-23T02:27:20.704Z,8.63
2022-09-23T02:30:11.458Z,8.48
2022-09-23T02:33:05.429Z,8.75
2022-09-23T02:35:37.210Z,8.68
2022-09-23T02:38:17.931Z,8.65
2022-09-23T02:40:52.287Z,8.48
2022-09-23T02:43:35.623Z,8.63
2022-09-23T02:46:05.013Z,8.57
2022-09-23T02:48:41.331Z,8.08
2022-09-23T02:51:09.983Z,7.99
2022-09-23T02:53:37.464Z,8.16
2022-09-23T02:56:16.181Z,8.50
2022-09-23T02:58:44.105Z,8.43
2022-09-23T03:01:18.985Z,8.30
2022-09-23T03:04:14.866Z,8.26
2022-09-23T03:06:53.384Z,7.81
2022-09-23T03:09:31.893Z,8.00
2022-09-23T03:12:15.687Z,8.15
2022-09-23T03:15:06.029Z,8.47
2022-09-23T03:17:48.986Z,8.45
2022-09-23T03:20:29.035Z,8.02
2022-09-23T03:23:00.874Z,8.10
2022-09-23T03:25:31.790Z,8.04
2022-09-23T03:28:00.928Z,8.19
2022-09-23T03:30:29.495Z,8.35
2022-09-23T03:32:58.057Z,8.35
2022-09-23T03:35:27.594Z,8.07
2022-09-23T03:38:24.577Z,7.84
2022-09-23T03:40:54.813Z,8.15
2022-09-23T03:43:22.521Z,8.17
2022-09-23T03:45:54.817Z,7.73
2022-09-23T03:48:22.445Z,7.63
2022-09-23T03:50:49.830Z,7.76
2022-09-23T03:53:21.057Z,7.62
2022-09-23T03:55:48.685Z,8.18
2022-09-23T03:58:16.002Z,8.29
2022-09-23T04:00:45.192Z,8.02
2022-09-23T04:03:12.848Z,8.04
2022-09-23T04:05:40.278Z,7.98
2022-09-23T04:08:07.610Z,7.95
2022-09-23T04:10:35.282Z,7.99
2022-09-23T04:13:02.672Z,8.08
2022-09-23T04:15:30.017Z,7.60
2022-09-23T04:17:57.628Z,7.92
2022-09-23T04:20:26.065Z,7.69
2022-09-23T04:22:53.582Z,7.89
2022-09-23T04:25:21.240Z,8.15
2022-09-23T04:27:48.607Z,8.19
2022-09-23T04:30:15.968Z,8.20
2022-09-23T04:32:43.603Z,8.09
2022-09-23T04:35:10.935Z,8.04
2022-09-23T04:37:38.301Z,8.01
2022-09-23T04:40:06.679Z,8.02
2022-09-23T04:42:34.072Z,8.19
2022-09-23T04:45:01.591Z,8.29
2022-09-23T04:47:31.757Z,8.20
2022-09-23T04:50:00.055Z,8.20
2022-09-23T04:52:27.496Z,8.30
2022-09-23T04:54:55.106Z,8.33
2022-09-23T04:57:23.176Z,8.14
2022-09-23T04:59:50.812Z,8.17
2022-09-23T05:02:18.505Z,8.11
2022-09-23T05:04:45.889Z,8.10
2022-09-23T05:07:13.239Z,8.06
2022-09-23T05:09:41.509Z,8.17
2022-09-23T05:12:08.903Z,8.47
2022-09-23T05:14:36.256Z,8.43
2022-09-23T05:17:03.901Z,8.35
2022-09-23T05:19:31.327Z,8.15
2022-09-23T05:21:58.651Z,8.47
2022-09-23T05:24:26.277Z,8.18
2022-09-23T05:26:54.202Z,8.65
2022-09-23T05:29:21.556Z,8.06
2022-09-23T05:31:49.309Z,8.42
2022-09-23T05:34:18.676Z,8.16
2022-09-23T05:36:46.112Z,8.78
2022-09-23T05:39:13.727Z,8.51
2022-09-23T05:41:42.949Z,9.10
2022-09-23T05:44:10.480Z,9.31
2022-09-23T05:46:38.178Z,10.07
2022-09-23T05:49:06.095Z,10.04
2022-09-23T05:51:35.086Z,10.87
2022-09-23T05:54:04.297Z,10.64
2022-09-23T05:56:32.998Z,10.95
2022-09-23T05:59:01.802Z,10.39
2022-09-23T06:01:35.261Z,11.38
2022-09-23T06:04:04.948Z,12.07
2022-09-23T06:06:35.028Z,10.93
2022-09-23T06:09:03.853Z,11.79
2022-09-23T06:11:32.749Z,11.38
2022-09-23T06:14:01.248Z,11.30
2022-09-23T06:16:31.224Z,12.47
2022-09-23T06:19:05.102Z,12.02
2022-09-23T06:21:35.050Z,12.62
2022-09-23T06:24:03.025Z,12.14
2022-09-23T06:26:33.767Z,12.26
2022-09-23T06:29:04.596Z,12.58
2022-09-23T06:31:33.019Z,12.54
2022-09-23T06:34:12.349Z,12.70
2022-09-23T06:36:45.828Z,13.22
2022-09-23T06:39:15.793Z,13.67
2022-09-23T06:41:44.326Z,13.26
2022-09-23T06:44:15.704Z,13.46
2022-09-23T06:46:44.138Z,13.04
2022-09-23T06:49:12.185Z,12.92
2022-09-23T06:51:40.241Z,13.38
2022-09-23T06:54:08.224Z,13.22
2022-09-23T06:56:39.232Z,13.53
2022-09-23T06:59:09.148Z,13.72
2022-09-23T07:01:36.908Z,13.82
2022-09-23T07:04:04.313Z,13.87
2022-09-23T07:06:31.698Z,14.10
2022-09-23T07:09:00.987Z,14.50
2022-09-23T07:11:28.349Z,13.94
2022-09-23T07:13:55.742Z,14.13
2022-09-23T07:16:23.467Z,14.24
2022-09-23T07:18:52.438Z,14.05
2022-09-23T07:21:19.840Z,13.77
2022-09-23T07:23:51.099Z,14.77
2022-09-23T07:26:19.775Z,14.74
2022-09-23T07:28:47.403Z,15.27
2022-09-23T07:31:25.683Z,14.89
2022-09-23T07:33:57.924Z,14.48
2022-09-23T07:36:27.964Z,14.68
2022-09-23T07:39:02.841Z,14.79
2022-09-23T07:41:32.185Z,14.77
2022-09-23T07:44:00.862Z,14.91
2022-09-23T07:46:32.849Z,14.90
2022-09-23T07:49:02.234Z,14.66
2022-09-23T07:51:36.325Z,14.97
2022-09-23T07:54:10.210Z,14.64
2022-09-23T07:56:40.290Z,15.21
2022-09-23T07:59:11.363Z,15.21
2022-09-23T08:01:42.312Z,14.74
2022-09-23T08:04:18.020Z,14.26
2022-09-23T08:06:50.965Z,14.08
2022-09-23T08:09:20.233Z,14.64
2022-09-23T08:11:47.941Z,14.29
2022-09-23T08:14:17.841Z,14.38
2022-09-23T08:16:46.883Z,14.87
2022-09-23T08:19:15.036Z,15.42
2022-09-23T08:21:43.193Z,15.39
2022-09-23T08:24:16.991Z,15.35
2022-09-23T08:26:45.245Z,14.79
2022-09-23T08:29:14.620Z,15.20
2022-09-23T08:31:42.284Z,15.78
2022-09-23T08:34:10.657Z,15.30
2022-09-23T08:36:39.693Z,15.58
2022-09-23T08:39:07.053Z,15.47
2022-09-23T08:41:52.881Z,15.34
2022-09-23T08:44:43.306Z,15.69
2022-09-23T08:47:19.188Z,15.62
2022-09-23T08:50:00.580Z,15.78
2022-09-23T08:52:36.204Z,15.96
2022-09-23T08:55:04.509Z,15.10
2022-09-23T08:57:34.675Z,15.06
2022-09-23T09:00:02.288Z,14.89
2022-09-23T09:02:30.860Z,15.45
2022-09-23T09:05:03.345Z,15.68
2022-09-23T09:07:37.363Z,15.66
2022-09-23T09:10:26.851Z,15.27
2022-09-23T09:13:01.640Z,16.01
2022-09-23T09:15:29.247Z,15.78
2022-09-23T09:18:14.219Z,15.91
2022-09-23T09:21:28.186Z,15.23
2022-09-23T09:23:59.263Z,15.65
2022-09-23T09:26:33.859Z,16.25
2022-09-23T09:29:17.206Z,15.82
2022-09-23T09:31:51.189Z,15.74
2022-09-23T09:34:28.977Z,16.33
2022-09-23T09:37:08.122Z,16.36
2022-09-23T09:39:36.840Z,16.74
2022-09-23T09:42:07.584Z,16.67
2022-09-23T09:45:03.532Z,16.58
2022-09-23T09:47:33.720Z,16.86
2022-09-23T09:50:11.092Z,16.53
2022-09-23T09:52:43.093Z,16.36
2022-09-23T09:55:14.541Z,16.58
2022-09-23T09:57:55.948Z,16.68
2022-09-23T10:00:32.735Z,16.55
2022-09-23T10:03:26.960Z,16.47
2022-09-23T10:05:57.693Z,16.90
2022-09-23T10:08:28.727Z,16.90
2022-09-23T10:10:58.969Z,16.97
2022-09-23T10:13:29.967Z,16.97
2022-09-23T10:16:04.424Z,16.55
2022-09-23T10:18:38.628Z,17.01
2022-09-23T10:21:18.138Z,16.97
2022-09-23T10:23:55.918Z,17.20
2022-09-23T10:26:55.036Z,17.21
2022-09-23T10:29:48.155Z,17.54
2022-09-23T10:32:36.361Z,17.46
2022-09-23T10:35:07.689Z,17.43
2022-09-23T10:37:40.645Z,16.71
2022-09-23T10:40:39.457Z,16.77
2022-09-23T10:43:39.175Z,17.21
2022-09-23T10:46:34.659Z,17.45
2022-09-23T10:49:28.012Z,17.30
2022-09-23T10:52:12.085Z,16.55
2022-09-23T10:54:49.749Z,17.21
2022-09-23T10:57:40.676Z,16.24
2022-09-23T11:00:51.871Z,16.88
2022-09-23T11:03:50.741Z,16.73
2022-09-23T11:06:36.970Z,17.13
2022-09-23T11:09:17.146Z,17.99
2022-09-23T11:12:12.375Z,18.18
2022-09-23T11:14:55.298Z,17.65
2022-09-23T11:17:43.337Z,17.82
2022-09-23T11:20:37.162Z,17.88
2022-09-23T11:23:22.208Z,18.55
2022-09-23T11:25:56.317Z,18.04
2022-09-23T11:28:53.850Z,17.52
2022-09-23T11:31:43.288Z,17.85
2022-09-23T11:34:52.735Z,17.41
2022-09-23T11:37:29.911Z,17.79
2022-09-23T11:40:01.869Z,17.32
2022-09-23T11:42:33.556Z,16.49
2022-09-23T11:45:15.076Z,16.22
2022-09-23T11:47:48.209Z,16.36
2022-09-23T11:50:27.069Z,16.99
2022-09-23T11:53:03.200Z,17.55
2022-09-23T11:55:35.190Z,17.42
2022-09-23T12:01:07.858Z,16.92
2022-09-23T12:04:00.454Z,17.46
2022-09-23T12:06:43.556Z,17.75
2022-09-23T12:09:30.986Z,17.37
2022-09-23T12:12:12.424Z,17.13
2022-09-23T12:15:14.428Z,17.70
2022-09-23T12:17:54.498Z,17.48
2022-09-23T12:20:37.935Z,18.02
2022-09-23T12:23:16.340Z,17.71
2022-09-23T12:25:56.330Z,17.85
2022-09-23T12:28:30.063Z,18.32
2022-09-23T12:30:59.524Z,18.91
2022-09-23T12:33:29.920Z,19.17
2022-09-23T12:36:06.397Z,19.19
2022-09-23T12:38:34.807Z,19.50
2022-09-23T12:41:08.957Z,19.27
2022-09-23T12:43:36.366Z,18.81
2022-09-23T12:46:21.336Z,19.05
2022-09-23T12:48:58.112Z,19.52
2022-09-23T12:51:36.159Z,19.51
2022-09-23T12:54:03.453Z,19.59
2022-09-23T12:56:36.711Z,19.92
2022-09-23T12:59:31.177Z,20.17
2022-09-23T13:02:28.883Z,20.62
2022-09-23T13:05:25.556Z,20.41
2022-09-23T13:07:59.622Z,20.41
2022-09-23T13:10:29.921Z,20.60
2022-09-23T13:12:57.750Z,19.18
2022-09-23T13:15:34.049Z,19.75
2022-09-23T13:18:54.457Z,20.30
2022-09-23T13:21:43.684Z,20.32
2022-09-23T13:24:20.297Z,19.85
2022-09-23T13:26:50.530Z,20.27
2022-09-23T13:29:28.124Z,20.43
2022-09-23T13:31:57.889Z,19.60
2022-09-23T13:34:31.049Z,20.22
2022-09-23T13:36:58.908Z,20.00
2022-09-23T13:39:28.574Z,20.15
2022-09-23T13:42:00.886Z,19.84
2022-09-23T13:44:28.945Z,19.97
2022-09-23T13:47:00.760Z,18.73
2022-09-23T13:49:35.745Z,19.72
2022-09-23T13:52:03.861Z,19.55
2022-09-23T13:54:37.222Z,19.59
2022-09-23T13:57:04.811Z,19.55
2022-09-23T13:59:42.341Z,19.71
2022-09-23T14:02:16.819Z,19.75
2022-09-23T14:04:44.501Z,20.10
2022-09-23T14:07:16.194Z,19.97
2022-09-23T14:09:46.213Z,19.76
2022-09-23T14:12:14.321Z,19.64
2022-09-23T14:14:42.191Z,19.33
2022-09-23T14:17:12.566Z,19.25
2022-09-23T14:19:42.532Z,19.57
2022-09-23T14:22:29.441Z,19.51
2022-09-23T14:24:57.582Z,20.02
2022-09-23T14:27:36.467Z,19.90
2022-09-23T14:30:04.873Z,19.80
2022-09-23T14:32:32.947Z,19.25
2022-09-23T14:35:00.228Z,19.44
2022-09-23T14:37:50.730Z,19.62
2022-09-23T14:40:22.312Z,19.52
2022-09-23T14:42:52.181Z,19.55
2022-09-23T14:45:21.519Z,19.52
2022-09-23T14:47:51.305Z,19.59
2022-09-23T14:50:37.219Z,19.33
2022-09-23T14:53:17.013Z,19.11
2022-09-23T14:55:45.658Z,18.35
2022-09-23T14:58:16.868Z,18.05
2022-09-23T15:00:59.944Z,17.96
2022-09-23T15:03:28.597Z,18.10
2022-09-23T15:06:06.380Z,17.56
2022-09-23T15:08:36.384Z,17.25
2022-09-23T15:11:07.843Z,17.91
2022-09-23T15:13:46.087Z,17.49
2022-09-23T15:16:15.504Z,18.00
2022-09-23T15:18:44.868Z,18.75
2022-09-23T15:21:15.235Z,17.99
2022-09-23T15:23:55.234Z,18.07
2022-09-23T15:26:45.331Z,18.02
2022-09-23T15:29:12.986Z,18.31
2022-09-23T15:31:40.388Z,18.59
2022-09-23T15:34:10.040Z,18.85
2022-09-23T15:36:38.596Z,18.75
2022-09-23T15:39:08.641Z,18.88
2022-09-23T15:41:35.993Z,18.73
2022-09-23T15:44:14.414Z,18.60
2022-09-23T15:46:46.363Z,18.79
2022-09-23T15:49:28.456Z,18.68
2022-09-23T15:51:59.253Z,18.24
2022-09-23T15:54:28.505Z,18.16
2022-09-23T15:56:58.604Z,18.14
2022-09-23T15:59:25.938Z,18.18
2022-09-23T16:01:54.016Z,18.19
2022-09-23T16:04:21.834Z,18.33
2022-09-23T16:06:49.354Z,18.10
2022-09-23T16:09:16.757Z,18.11
2022-09-23T16:11:49.265Z,18.14
2022-09-23T16:14:17.735Z,18.09
2022-09-23T16:16:47.791Z,18.13
2022-09-23T16:19:16.151Z,17.76
2022-09-23T16:21:44.610Z,17.70
2022-09-23T16:24:15.824Z,17.59
2022-09-23T16:26:45.242Z,17.55
2022-09-23T16:29:13.494Z,17.43
2022-09-23T16:31:41.061Z,17.35
2022-09-23T16:34:08.496Z,16.96
2022-09-23T16:36:42.339Z,17.13
2022-09-23T16:39:12.517Z,16.99
2022-09-23T16:41:40.447Z,16.89
2022-09-23T16:44:09.381Z,16.78
2022-09-23T16:46:36.833Z,16.77
2022-09-23T16:49:04.697Z,16.58
2022-09-23T16:51:38.154Z,16.50
2022-09-23T16:54:10.274Z,16.33
2022-09-23T16:56:40.377Z,16.31
2022-09-23T16:59:08.264Z,16.00
2022-09-23T17:01:54.196Z,15.79
2022-09-23T17:04:22.657Z,15.88
2022-09-23T17:06:51.919Z,15.86
2022-09-23T17:09:21.142Z,15.62
2022-09-23T17:11:58.764Z,15.71
2022-09-23T17:14:26.240Z,15.69
2022-09-23T17:16:53.831Z,15.59
2022-09-23T17:19:21.177Z,15.52
2022-09-23T17:21:48.526Z,15.50
2022-09-23T17:24:16.114Z,15.08
2022-09-23T17:26:50.712Z,14.92
2022-09-23T17:29:20.609Z,14.67
2022-09-23T17:31:48.011Z,14.64
2022-09-23T17:34:16.360Z,15.22
2022-09-23T17:36:43.974Z,14.77
2022-09-23T17:39:11.312Z,14.67
2022-09-23T17:41:39.295Z,14.55
2022-09-23T17:44:08.101Z,14.19
2022-09-23T17:46:35.446Z,14.30
2022-09-23T17:49:04.092Z,14.40
2022-09-23T17:51:31.773Z,14.42
2022-09-23T17:53:59.213Z,14.34
2022-09-23T17:56:27.013Z,14.08
2022-09-23T17:58:54.625Z,14.15
2022-09-23T18:01:24.161Z,13.64
2022-09-23T18:04:09.714Z,14.13
2022-09-23T18:06:37.107Z,13.81
2022-09-23T18:09:07.640Z,13.83
2022-09-23T18:11:36.955Z,13.60
2022-09-23T18:14:11.965Z,13.91
2022-09-23T18:16:40.674Z,13.94
2022-09-23T18:19:11.360Z,13.88
2022-09-23T18:21:40.770Z,13.44
2022-09-23T18:26:59.606Z,13.19
2022-09-23T18:29:27.375Z,13.25
2022-09-23T18:31:54.897Z,13.18
2022-09-23T18:34:23.535Z,13.33
2022-09-23T18:36:51.266Z,13.23
2022-09-23T18:39:18.586Z,13.33
2022-09-23T18:41:46.040Z,13.03
2022-09-23T18:44:13.686Z,13.15
2022-09-23T18:46:41.019Z,13.05
2022-09-23T18:49:27.270Z,12.95
2022-09-23T18:51:56.387Z,12.67
2022-09-23T18:54:24.932Z,12.62
2022-09-23T18:56:52.860Z,12.45
2022-09-23T18:59:24.693Z,12.60
2022-09-23T19:01:55.356Z,12.77
2022-09-23T19:04:25.010Z,12.42
2022-09-23T19:06:53.967Z,11.98
2022-09-23T19:09:21.318Z,11.78
2022-09-23T19:11:52.518Z,11.89
2022-09-23T19:14:20.191Z,12.48
2022-09-23T19:16:49.175Z,12.24
2022-09-23T19:19:17.301Z,12.27
2022-09-23T19:21:44.816Z,12.27
2022-09-23T19:24:15.675Z,12.30
2022-09-23T19:26:46.739Z,12.20
2022-09-23T19:29:16.522Z,11.92
2022-09-23T19:31:44.355Z,12.08
2022-09-23T19:34:17.225Z,12.15
2022-09-23T19:36:46.039Z,12.14
2022-09-23T19:39:24.085Z,11.80
2022-09-23T19:41:52.594Z,11.80
2022-09-23T19:44:20.287Z,12.00
2022-09-23T19:46:53.347Z,11.89
2022-09-23T19:49:25.097Z,12.16
2022-09-23T19:51:55.721Z,11.84
2022-09-23T19:54:26.028Z,11.85
2022-09-23T19:56:53.419Z,11.71
2022-09-23T19:59:20.761Z,11.57
2022-09-23T20:01:48.757Z,11.64
2022-09-23T20:04:17.042Z,11.77
2022-09-23T20:06:45.900Z,11.52
2022-09-23T20:09:13.604Z,11.57
2022-09-23T20:11:43.110Z,11.31
2022-09-23T20:14:11.070Z,11.39
2022-09-23T20:16:38.702Z,11.34
2022-09-23T20:19:06.466Z,11.46
2022-09-23T20:21:34.386Z,11.49
2022-09-23T20:24:04.485Z,11.39
2022-09-23T20:26:51.243Z,11.32
2022-09-23T20:29:18.594Z,11.33
2022-09-23T20:31:46.289Z,11.23
2022-09-23T20:34:13.722Z,11.15
2022-09-23T20:36:41.777Z,11.21
2022-09-23T20:39:10.240Z,10.76
2022-09-23T20:41:39.256Z,11.06
2022-09-23T20:44:13.954Z,11.04
2022-09-23T20:46:47.830Z,10.84
2022-09-23T20:49:16.484Z,10.96
2022-09-23T20:51:44.457Z,11.01
2022-09-23T20:54:12.285Z,11.03
2022-09-23T20:56:39.648Z,11.07
2022-09-23T20:59:07.357Z,10.89
2022-09-23T21:01:36.478Z,10.76
2022-09-23T21:04:05.825Z,10.82
2022-09-23T21:06:34.989Z,10.73
2022-09-23T21:09:02.675Z,10.72
2022-09-23T21:11:30.619Z,10.87
2022-09-23T21:13:59.157Z,10.83
2022-09-23T21:16:26.553Z,10.63
2022-09-23T21:18:54.120Z,10.41
2022-09-23T21:21:22.407Z,10.58
2022-09-23T21:23:50.510Z,10.66
2022-09-23T21:26:23.240Z,10.58
2022-09-23T21:28:52.727Z,10.49
2022-09-23T21:31:27.632Z,10.47
2022-09-23T21:33:56.599Z,10.30
2022-09-23T21:36:24.731Z,9.92
2022-09-23T21:38:52.942Z,10.03
2022-09-23T21:41:20.574Z,10.32
2022-09-23T21:43:49.565Z,10.26
2022-09-23T21:46:21.416Z,10.06
2022-09-23T21:48:53.244Z,10.11
2022-09-23T21:51:24.966Z,10.53
2022-09-23T21:53:54.957Z,10.31
2022-09-23T21:56:27.188Z,10.41
2022-09-23T21:58:55.945Z,10.27
2022-09-23T22:01:25.415Z,9.97
2022-09-23T22:03:55.490Z,10.11
2022-09-23T22:06:26.765Z,10.11
2022-09-23T22:08:59.007Z,10.07
2022-09-23T22:11:47.539Z,9.94
2022-09-23T22:14:17.002Z,9.93
2022-09-23T22:16:44.539Z,9.30
2022-09-23T22:19:13.599Z,9.23
2022-09-23T22:21:43.156Z,9.40
2022-09-23T22:24:11.558Z,9.49
2022-09-23T22:26:41.117Z,9.73
2022-09-23T22:29:32.267Z,9.67
2022-09-23T22:32:19.745Z,9.92
2022-09-23T22:34:50.395Z,9.70
2022-09-23T22:37:21.272Z,9.79
2022-09-23T22:39:48.904Z,9.78
2022-09-23T22:42:16.269Z,9.65
2022-09-23T22:44:43.709Z,9.48
2022-09-23T22:47:11.338Z,9.48
2022-09-23T22:49:38.678Z,9.59
2022-09-23T22:52:08.042Z,9.69
2022-09-23T22:54:35.782Z,9.62
2022-09-23T22:57:07.659Z,9.57
2022-09-23T22:59:35.678Z,9.52
2022-09-23T23:02:03.601Z,9.47
2022-09-23T23:04:31.086Z,9.30
2022-09-23T23:07:02.209Z,9.40
2022-09-23T23:09:29.814Z,9.53
2022-09-23T23:11:57.112Z,9.35
2022-09-23T23:14:25.765Z,9.27
2022-09-23T23:16:53.567Z,9.23
2022-09-23T23:19:20.876Z,9.21
2022-09-23T23:21:49.734Z,9.31
2022-09-23T23:24:22.607Z,9.27
2022-09-23T23:26:51.197Z,9.30
2022-09-23T23:29:20.431Z,9.32
2022-09-23T23:31:48.564Z,9.52
2022-09-23T23:34:17.882Z,9.23
2022-09-23T23:36:46.458Z,9.12
2022-09-23T23:39:14.170Z,9.10
2022-09-23T23:41:41.712Z,9.28
2022-09-23T23:44:11.636Z,9.39
2022-09-23T23:46:39.080Z,9.21
2022-09-23T23:49:06.797Z,9.35
2022-09-23T23:51:34.425Z,9.18
2022-09-23T23:54:01.846Z,9.03
2022-09-23T23:56:30.353Z,9.08
2022-09-23T23:59:00.109Z,9.06
